13:19
Airports
History
Links
Donate
Help keep this website running!
PayPal
Bitcoin
This page is community maintained. The information is intended for PC simulator navigation or reference.
Always use approved charts for navigation.
7IL2
O John Clark Rla
O John Clark Rla (7IL2)
Gurnee, Illinois, United States (60031)
4
Lat/Lng:42° 22' 6.08" N / 87° 59' 30.28" W
42.368355 / -87.991744
Elevation:790'ft / 241mMSL
ID / ICAO:7IL2
Runways:1
Longest:36-18
Grass 805m / 2,640ft
Nearby Weather12:55 GMT 2018-01-20
Nearby weather at KUGN, Waukegan Rgnl located 7.3 nautical miles from 7IL2
Altimeter: 29.85
Visibility: 10.0 statute miles
Wind: 4 knots (from 240°)
Temp: 2°c / 36°f
Humidity: 74.7%

METAR: KUGN 201255Z 24004KT 10SM CLR 02/M02 A2985 RMK AO2 SLP116 T00171022

(Powered by phpweather)
Nearby VORs <50NM
Nearby NDBs
Runway 36 / 18
Dimensions:804.7 x 36.6m 2640' x 120'ft
Surface:Grass
Runway 36 [A]Runway 18 [B]
Heading:358°TH 178°TH
Lat:
Lng:
42° 21' 53.04"N
87° 59' 29.97"W
42° 22' 19.11"N
87° 59' 30.59"W
User Notes and Comments
42° 22' 6.08" N / 87° 59' 30.28" W
Distance To
Airport ID:
Nearby Airports
(R) Rockenbach 5.2 NM
LL97 WSW 246°
(U) Campbell 5.2 NM
C81 SW 234°
(R) Donald Alfred Gade 7.1 NM
IL11 NNW 339°
(C) Waukegan Rgnl 7.3 NM
KUGN ( WX ) ENE 59°
(R) Air Estates Inc 8.0 NM
LL09 SW 220°
(R) Herbert C. Maas 8.3 NM
IL02 NNE 30°
(R) Dutch Gap Airstrip 10.8 NM
04WI N 353°
VFR Chart
Flight Planning at SkyVector.com